Terminal Aerodrome Forecast
Issued by NWS Binghamton, NY

Home | Current Version | Previous Version | Text Only | Print | Product List | Glossary On
Versions: 1 2 3 4 5 6 7 8 9 10 11 12 13 14 15 16
000
FTUS41 KBGM 272300
TAFAVP
TAF
KAVP 272336Z 2800/2824 26008KT P6SM BKN035 BKN080
      TEMPO 2800/2802 3SM SHRA BR
     FM280300 01003KT P6SM SCT035 SCT080
      TEMPO 2809/2811 4SM BR
     FM281300 32008KT P6SM BKN040
     FM281800 33012G20KT P6SM SCT060=

USA.gov is the U.S. government's official web portal to all federal, state and local government web resources and services.